地図

経路データ

SID SEASON NUMBER BASIN SUBBASIN NAME ISO_TIME NATURE LAT LON WMO_WIND WMO_PRES WMO_AGENCY TRACK_TYPE DIST2LAND LANDFALL IFLAG USA_AGENCY USA_ATCF_ID USA_LAT USA_LON USA_RECORD USA_STATUS USA_WIND USA_PRES USA_SSHS USA_R34_NE USA_R34_SE USA_R34_SW USA_R34_NW USA_R50_NE USA_R50_SE USA_R50_SW USA_R50_NW USA_R64_NE USA_R64_SE USA_R64_SW USA_R64_NW USA_POCI USA_ROCI USA_RMW USA_EYE TOKYO_LAT TOKYO_LON TOKYO_GRADE TOKYO_WIND TOKYO_PRES TOKYO_R50_DIR TOKYO_R50_LONG TOKYO_R50_SHORT TOKYO_R30_DIR TOKYO_R30_LONG TOKYO_R30_SHORT TOKYO_LAND CMA_LAT CMA_LON CMA_CAT CMA_WIND CMA_PRES HKO_LAT HKO_LON HKO_CAT HKO_WIND HKO_PRES NEWDELHI_LAT NEWDELHI_LON NEWDELHI_GRADE NEWDELHI_WIND NEWDELHI_PRES NEWDELHI_CI NEWDELHI_DP NEWDELHI_POCI REUNION_LAT REUNION_LON REUNION_TYPE REUNION_WIND REUNION_PRES REUNION_TNUM REUNION_CI REUNION_RMW REUNION_R34_NE REUNION_R34_SE REUNION_R34_SW REUNION_R34_NW REUNION_R50_NE REUNION_R50_SE REUNION_R50_SW REUNION_R50_NW REUNION_R64_NE REUNION_R64_SE REUNION_R64_SW REUNION_R64_NW BOM_LAT BOM_LON BOM_TYPE BOM_WIND BOM_PRES BOM_TNUM BOM_CI BOM_RMW BOM_R34_NE BOM_R34_SE BOM_R34_SW BOM_R34_NW BOM_R50_NE BOM_R50_SE BOM_R50_SW BOM_R50_NW BOM_R64_NE BOM_R64_SE BOM_R64_SW BOM_R64_NW BOM_ROCI BOM_POCI BOM_EYE BOM_POS_METHOD BOM_PRES_METHOD NADI_LAT NADI_LON NADI_CAT NADI_WIND NADI_PRES WELLINGTON_LAT WELLINGTON_LON WELLINGTON_WIND WELLINGTON_PRES DS824_LAT DS824_LON DS824_STAGE DS824_WIND DS824_PRES TD9636_LAT TD9636_LON TD9636_STAGE TD9636_WIND TD9636_PRES TD9635_LAT TD9635_LON TD9635_WIND TD9635_PRES TD9635_ROCI NEUMANN_LAT NEUMANN_LON NEUMANN_CLASS NEUMANN_WIND NEUMANN_PRES MLC_LAT MLC_LON MLC_CLASS MLC_WIND MLC_PRES USA_GUST BOM_GUST BOM_GUST_PER REUNION_GUST REUNION_GUST_PER USA_SEAHGT USA_SEARAD_NE USA_SEARAD_SE USA_SEARAD_SW USA_SEARAD_NW STORM_SPEED STORM_DIR
1946305N22287 1946 64 NA NA NOT_NAMED 1946-10-31 18:00:00 TS 21.9000 -73.5000 30 hurdat_atl main 84 84 O_____________ hurdat_atl AL071946 21.9000 -73.5000 TD 30 -1 22 302
1946305N22287 1946 64 NA NA NOT_NAMED 1946-10-31 21:00:00 TS 22.4975 -74.5151 main 176 176 P_____________ AL071946 22.4975 -74.5151 TD 32 -1 20 303
1946305N22287 1946 64 NA NA NOT_NAMED 1946-11-01 00:00:00 TS 23.0000 -75.3000 35 hurdat_atl main 221 217 O_____________ hurdat_atl AL071946 23.0000 -75.3000 TS 35 0 15 307
1946305N22287 1946 64 NA NA NOT_NAMED 1946-11-01 03:00:00 TS 23.4000 -75.8000 35 hurdat_atl main 228 138 O_____________ hurdat_atl AL071946 23.4000 -75.8000 L TS 35 0 14 309
1946305N22287 1946 64 NA NA NOT_NAMED 1946-11-01 06:00:00 TS 23.9000 -76.5000 40 hurdat_atl main 138 69 O_____________ hurdat_atl AL071946 23.9000 -76.5000 TS 40 0 15 304
1946305N22287 1946 64 NA NA NOT_NAMED 1946-11-01 09:00:00 TS 24.2461 -77.1480 main 69 0 P_____________ AL071946 24.2461 -77.1480 TS 40 0 14 301
1946305N22287 1946 64 NA NA NOT_NAMED 1946-11-01 12:00:00 TS 24.6000 -77.8000 40 hurdat_atl main 0 0 O_____________ hurdat_atl AL071946 24.6000 -77.8000 L TS 40 0 16 306
1946305N22287 1946 64 NA NA NOT_NAMED 1946-11-01 15:00:00 TS 25.1647 -78.5627 main 51 51 P_____________ AL071946 25.1647 -78.5627 TS 40 0 18 311
1946305N22287 1946 64 NA NA NOT_NAMED 1946-11-01 18:00:00 TS 25.8000 -79.3000 40 1002 hurdat_atl main 80 19 O_____________ hurdat_atl AL071946 25.8000 -79.3000 TS 40 1002 0 18 316
1946305N22287 1946 64 NA NA NOT_NAMED 1946-11-01 21:00:00 TS 26.4402 -79.9454 main 19 0 P_____________ AL071946 26.4402 -79.9454 TS 40 1002 0 16 318
1946305N22287 1946 64 NA NA NOT_NAMED 1946-11-01 22:00:00 TS 26.6000 -80.1000 40 1002 hurdat_atl main 0 0 O_____________ hurdat_atl AL071946 26.6000 -80.1000 L TS 40 1002 0 10 319
1946305N22287 1946 64 NA NA NOT_NAMED 1946-11-02 00:00:00 TS 26.8000 -80.3000 35 hurdat_atl main 0 0 O_____________ hurdat_atl AL071946 26.8000 -80.3000 TS 35 0 10 318
1946305N22287 1946 64 NA NA NOT_NAMED 1946-11-02 03:00:00 TS 27.2218 -80.7340 main 0 0 P_____________ AL071946 27.2218 -80.7340 TS 32 -1 12 318
1946305N22287 1946 64 NA NA NOT_NAMED 1946-11-02 06:00:00 TS 27.7000 -81.2000 30 hurdat_atl main 0 0 O_____________ hurdat_atl AL071946 27.7000 -81.2000 TD 30 -1 12 321
1946305N22287 1946 64 NA NA NOT_NAMED 1946-11-02 09:00:00 TS 28.1224 -81.5526 main 0 0 P_____________ AL071946 28.1224 -81.5526 TD 27 -1 10 326
1946305N22287 1946 64 NA NA NOT_NAMED 1946-11-02 12:00:00 TS 28.5000 -81.8000 25 hurdat_atl main 0 0 O_____________ hurdat_atl AL071946 28.5000 -81.8000 TD 25 -1 8 333
1946305N22287 1946 64 NA NA NOT_NAMED 1946-11-02 15:00:00 TS 28.8149 -81.9602 main 0 0 P_____________ AL071946 28.8149 -81.9602 TD 25 -1 6 344
1946305N22287 1946 64 NA NA NOT_NAMED 1946-11-02 18:00:00 TS 29.1000 -82.0000 25 hurdat_atl main 0 0 O_____________ hurdat_atl AL071946 29.1000 -82.0000 TD 25 -1 5 356
1946305N22287 1946 64 NA NA NOT_NAMED 1946-11-02 21:00:00 TS 29.3546 -81.9965 main 0 0 P_____________ AL071946 29.3546 -81.9965 TD 22 -1 6 16
1946305N22287 1946 64 NA NA NOT_NAMED 1946-11-03 00:00:00 TS 29.7000 -81.8000 20 hurdat_atl main 0 0 O_____________ hurdat_atl AL071946 29.7000 -81.8000 TD 20 -1 11 33
1946305N22287 1946 64 NA NA NOT_NAMED 1946-11-03 03:00:00 TS 30.2410 -81.3326 main 14 14 P_____________ AL071946 30.2410 -81.3326 TD 20 -1 15 38
1946305N22287 1946 64 NA NA NOT_NAMED 1946-11-03 06:00:00 TS 30.9000 -80.7000 20 hurdat_atl main 66 O_____________ hurdat_atl AL071946 30.9000 -80.7000 TD 20 -1 17 39

IBTrACS Databaseについて

本データベースは、米国NOAAが公開する1842年以降の世界の熱帯低気圧のベストトラックデータアーカイブInternational Best Track Archive for Climate Stewardship (IBTrACS)を、ウェブで閲覧しやすい形式に変換したものです。

最終更新日:2021-11-26